sensor_id;sensor_type;location;lat;lon;timestamp;temperature;humidity
41838;DHT22;27511;52.042;5.178;2023-06-26T00:01:49;28.30;99.90
41838;DHT22;27511;52.042;5.178;2023-06-26T00:04:15;28.40;99.90
41838;DHT22;27511;52.042;5.178;2023-06-26T00:06:40;28.40;99.90
41838;DHT22;27511;52.042;5.178;2023-06-26T00:09:06;28.40;99.90
41838;DHT22;27511;52.042;5.178;2023-06-26T00:11:32;28.40;99.90
41838;DHT22;27511;52.042;5.178;2023-06-26T00:14:01;28.50;99.90
41838;DHT22;27511;52.042;5.178;2023-06-26T00:16:27;28.50;99.90
41838;DHT22;27511;52.042;5.178;2023-06-26T00:18:53;28.40;99.90
41838;DHT22;27511;52.042;5.178;2023-06-26T00:21:18;28.50;99.90
41838;DHT22;27511;52.042;5.178;2023-06-26T00:23:44;28.50;99.90
41838;DHT22;27511;52.042;5.178;2023-06-26T00:26:10;28.30;99.90
41838;DHT22;27511;52.042;5.178;2023-06-26T00:28:36;28.30;99.90
41838;DHT22;27511;52.042;5.178;2023-06-26T00:31:01;28.20;99.90
41838;DHT22;27511;52.042;5.178;2023-06-26T00:33:27;28.10;99.90
41838;DHT22;27511;52.042;5.178;2023-06-26T00:35:52;28.10;99.90
41838;DHT22;27511;52.042;5.178;2023-06-26T00:38:18;28.00;99.90
41838;DHT22;27511;52.042;5.178;2023-06-26T00:40:43;27.90;99.90
41838;DHT22;27511;52.042;5.178;2023-06-26T00:43:09;27.90;99.90
41838;DHT22;27511;52.042;5.178;2023-06-26T00:45:34;28.10;99.90
41838;DHT22;27511;52.042;5.178;2023-06-26T00:48:00;28.20;99.90
41838;DHT22;27511;52.042;5.178;2023-06-26T00:50:26;28.10;99.90
41838;DHT22;27511;52.042;5.178;2023-06-26T00:52:52;28.10;99.90
41838;DHT22;27511;52.042;5.178;2023-06-26T00:55:19;28.00;99.90
41838;DHT22;27511;52.042;5.178;2023-06-26T00:57:45;28.10;99.90
41838;DHT22;27511;52.042;5.178;2023-06-26T01:00:11;28.00;99.90
41838;DHT22;27511;52.042;5.178;2023-06-26T01:02:37;28.00;99.90
41838;DHT22;27511;52.042;5.178;2023-06-26T01:05:04;27.90;99.90
41838;DHT22;27511;52.042;5.178;2023-06-26T01:07:34;27.90;99.90
41838;DHT22;27511;52.042;5.178;2023-06-26T01:10:02;27.90;99.90
41838;DHT22;27511;52.042;5.178;2023-06-26T01:12:29;27.80;99.90
41838;DHT22;27511;52.042;5.178;2023-06-26T01:14:55;27.70;99.90
41838;DHT22;27511;52.042;5.178;2023-06-26T01:17:20;27.60;99.90
41838;DHT22;27511;52.042;5.178;2023-06-26T01:19:46;27.60;99.90
41838;DHT22;27511;52.042;5.178;2023-06-26T01:22:24;27.60;99.90
41838;DHT22;27511;52.042;5.178;2023-06-26T01:27:23;27.60;99.90
41838;DHT22;27511;52.042;5.178;2023-06-26T01:29:49;27.50;99.90
41838;DHT22;27511;52.042;5.178;2023-06-26T01:32:15;27.40;99.90
41838;DHT22;27511;52.042;5.178;2023-06-26T01:34:41;27.40;99.90
41838;DHT22;27511;52.042;5.178;2023-06-26T01:37:07;27.40;99.90
41838;DHT22;27511;52.042;5.178;2023-06-26T01:39:32;27.30;99.90
41838;DHT22;27511;52.042;5.178;2023-06-26T01:41:58;27.20;99.90
41838;DHT22;27511;52.042;5.178;2023-06-26T01:44:28;27.20;99.90
41838;DHT22;27511;52.042;5.178;2023-06-26T01:47:03;27.20;99.90
41838;DHT22;27511;52.042;5.178;2023-06-26T01:52:19;27.10;99.90
41838;DHT22;27511;52.042;5.178;2023-06-26T01:57:26;27.00;99.90
41838;DHT22;27511;52.042;5.178;2023-06-26T01:59:53;27.00;99.90
41838;DHT22;27511;52.042;5.178;2023-06-26T02:02:19;26.90;99.90
41838;DHT22;27511;52.042;5.178;2023-06-26T02:04:45;26.80;99.90
41838;DHT22;27511;52.042;5.178;2023-06-26T02:07:13;26.70;99.90
41838;DHT22;27511;52.042;5.178;2023-06-26T02:09:39;26.70;99.90
41838;DHT22;27511;52.042;5.178;2023-06-26T02:12:04;26.60;99.90
41838;DHT22;27511;52.042;5.178;2023-06-26T02:14:30;26.60;99.90
41838;DHT22;27511;52.042;5.178;2023-06-26T02:16:55;26.60;99.90
41838;DHT22;27511;52.042;5.178;2023-06-26T02:19:21;26.50;99.90
41838;DHT22;27511;52.042;5.178;2023-06-26T02:21:47;26.40;99.90
41838;DHT22;27511;52.042;5.178;2023-06-26T02:24:13;26.40;99.90
41838;DHT22;27511;52.042;5.178;2023-06-26T02:26:39;26.40;99.90
41838;DHT22;27511;52.042;5.178;2023-06-26T02:29:04;26.40;99.90
41838;DHT22;27511;52.042;5.178;2023-06-26T02:31:30;26.40;99.90
41838;DHT22;27511;52.042;5.178;2023-06-26T02:33:55;26.40;99.90
41838;DHT22;27511;52.042;5.178;2023-06-26T02:36:21;26.50;99.90
41838;DHT22;27511;52.042;5.178;2023-06-26T02:38:46;26.50;99.90
41838;DHT22;27511;52.042;5.178;2023-06-26T02:41:12;26.50;99.90
41838;DHT22;27511;52.042;5.178;2023-06-26T02:43:37;26.40;99.90
41838;DHT22;27511;52.042;5.178;2023-06-26T02:46:03;26.30;99.90
41838;DHT22;27511;52.042;5.178;2023-06-26T02:48:28;26.40;99.90
41838;DHT22;27511;52.042;5.178;2023-06-26T02:50:54;26.30;99.90
41838;DHT22;27511;52.042;5.178;2023-06-26T02:53:19;26.40;99.90
41838;DHT22;27511;52.042;5.178;2023-06-26T02:55:45;26.40;99.90
41838;DHT22;27511;52.042;5.178;2023-06-26T02:58:13;26.30;99.90
41838;DHT22;27511;52.042;5.178;2023-06-26T03:00:38;26.20;99.90
41838;DHT22;27511;52.042;5.178;2023-06-26T03:03:07;26.20;99.90
41838;DHT22;27511;52.042;5.178;2023-06-26T03:05:32;26.20;99.90
41838;DHT22;27511;52.042;5.178;2023-06-26T03:07:58;26.20;99.90
41838;DHT22;27511;52.042;5.178;2023-06-26T03:10:24;26.20;99.90
41838;DHT22;27511;52.042;5.178;2023-06-26T03:12:49;26.20;99.90
41838;DHT22;27511;52.042;5.178;2023-06-26T03:15:15;26.10;99.90
41838;DHT22;27511;52.042;5.178;2023-06-26T03:17:40;25.90;99.90
41838;DHT22;27511;52.042;5.178;2023-06-26T03:20:06;25.90;99.90
41838;DHT22;27511;52.042;5.178;2023-06-26T03:22:32;25.90;99.90
41838;DHT22;27511;52.042;5.178;2023-06-26T03:24:58;25.90;99.90
41838;DHT22;27511;52.042;5.178;2023-06-26T03:27:23;25.90;99.90
41838;DHT22;27511;52.042;5.178;2023-06-26T03:29:49;25.80;99.90
41838;DHT22;27511;52.042;5.178;2023-06-26T03:32:14;25.80;99.90
41838;DHT22;27511;52.042;5.178;2023-06-26T03:34:40;25.80;99.90
41838;DHT22;27511;52.042;5.178;2023-06-26T03:37:05;25.80;99.90
41838;DHT22;27511;52.042;5.178;2023-06-26T03:39:31;25.80;99.90
41838;DHT22;27511;52.042;5.178;2023-06-26T03:41:56;25.70;99.90
41838;DHT22;27511;52.042;5.178;2023-06-26T03:44:25;25.70;99.90
41838;DHT22;27511;52.042;5.178;2023-06-26T03:46:51;25.60;99.90
41838;DHT22;27511;52.042;5.178;2023-06-26T03:49:16;25.60;99.90
41838;DHT22;27511;52.042;5.178;2023-06-26T03:51:43;25.60;99.90
41838;DHT22;27511;52.042;5.178;2023-06-26T03:54:09;25.60;99.90
41838;DHT22;27511;52.042;5.178;2023-06-26T03:56:34;25.50;99.90
41838;DHT22;27511;52.042;5.178;2023-06-26T03:59:00;25.50;99.90
41838;DHT22;27511;52.042;5.178;2023-06-26T04:01:25;25.30;99.90
41838;DHT22;27511;52.042;5.178;2023-06-26T04:03:51;25.10;99.90
41838;DHT22;27511;52.042;5.178;2023-06-26T04:06:16;25.20;99.90
41838;DHT22;27511;52.042;5.178;2023-06-26T04:08:42;25.20;99.90
41838;DHT22;27511;52.042;5.178;2023-06-26T04:11:07;25.20;99.90
41838;DHT22;27511;52.042;5.178;2023-06-26T04:13:33;25.20;99.90
41838;DHT22;27511;52.042;5.178;2023-06-26T04:15:58;25.10;99.90
41838;DHT22;27511;52.042;5.178;2023-06-26T04:18:24;25.00;99.90
41838;DHT22;27511;52.042;5.178;2023-06-26T04:21:05;24.90;99.90
41838;DHT22;27511;52.042;5.178;2023-06-26T04:23:32;24.90;99.90
41838;DHT22;27511;52.042;5.178;2023-06-26T04:25:58;24.90;99.90
41838;DHT22;27511;52.042;5.178;2023-06-26T04:28:24;24.90;99.90
41838;DHT22;27511;52.042;5.178;2023-06-26T04:30:49;24.90;99.90
41838;DHT22;27511;52.042;5.178;2023-06-26T04:33:15;25.10;99.90
41838;DHT22;27511;52.042;5.178;2023-06-26T04:35:40;25.10;99.90
41838;DHT22;27511;52.042;5.178;2023-06-26T04:38:06;25.10;99.90
41838;DHT22;27511;52.042;5.178;2023-06-26T04:40:31;25.20;99.90
41838;DHT22;27511;52.042;5.178;2023-06-26T04:42:57;25.20;99.90
41838;DHT22;27511;52.042;5.178;2023-06-26T04:45:22;25.20;99.90
41838;DHT22;27511;52.042;5.178;2023-06-26T04:47:48;25.10;99.90
41838;DHT22;27511;52.042;5.178;2023-06-26T04:50:13;25.00;99.90
41838;DHT22;27511;52.042;5.178;2023-06-26T04:52:39;25.00;99.90
41838;DHT22;27511;52.042;5.178;2023-06-26T04:55:04;25.00;99.90
41838;DHT22;27511;52.042;5.178;2023-06-26T04:57:30;24.90;99.90
41838;DHT22;27511;52.042;5.178;2023-06-26T04:59:55;24.90;99.90
41838;DHT22;27511;52.042;5.178;2023-06-26T05:02:21;24.90;99.90
41838;DHT22;27511;52.042;5.178;2023-06-26T05:04:46;24.90;99.90
41838;DHT22;27511;52.042;5.178;2023-06-26T05:07:13;24.80;99.90
41838;DHT22;27511;52.042;5.178;2023-06-26T05:09:39;24.70;99.90
41838;DHT22;27511;52.042;5.178;2023-06-26T05:12:04;24.50;99.90
41838;DHT22;27511;52.042;5.178;2023-06-26T05:14:30;24.30;99.90
41838;DHT22;27511;52.042;5.178;2023-06-26T05:16:55;24.30;99.90
41838;DHT22;27511;52.042;5.178;2023-06-26T05:19:21;24.40;99.90
41838;DHT22;27511;52.042;5.178;2023-06-26T05:21:46;24.50;99.90
41838;DHT22;27511;52.042;5.178;2023-06-26T05:24:13;24.30;99.90
41838;DHT22;27511;52.042;5.178;2023-06-26T05:26:39;24.30;99.90
41838;DHT22;27511;52.042;5.178;2023-06-26T05:29:04;24.40;99.90
41838;DHT22;27511;52.042;5.178;2023-06-26T05:31:31;24.60;99.90
41838;DHT22;27511;52.042;5.178;2023-06-26T05:33:58;24.70;99.90
41838;DHT22;27511;52.042;5.178;2023-06-26T05:36:25;24.60;99.90
41838;DHT22;27511;52.042;5.178;2023-06-26T05:38:51;24.50;99.90
41838;DHT22;27511;52.042;5.178;2023-06-26T05:41:17;24.40;99.90
41838;DHT22;27511;52.042;5.178;2023-06-26T05:43:42;24.40;99.90
41838;DHT22;27511;52.042;5.178;2023-06-26T05:46:08;24.50;99.90
41838;DHT22;27511;52.042;5.178;2023-06-26T05:48:33;24.40;99.90
41838;DHT22;27511;52.042;5.178;2023-06-26T05:50:59;24.30;99.90
41838;DHT22;27511;52.042;5.178;2023-06-26T05:53:24;24.20;99.90
41838;DHT22;27511;52.042;5.178;2023-06-26T05:55:50;24.10;99.90
41838;DHT22;27511;52.042;5.178;2023-06-26T05:58:16;24.20;99.90
41838;DHT22;27511;52.042;5.178;2023-06-26T06:00:42;24.30;99.90
41838;DHT22;27511;52.042;5.178;2023-06-26T06:03:09;24.40;99.90
41838;DHT22;27511;52.042;5.178;2023-06-26T06:05:35;24.40;99.90
41838;DHT22;27511;52.042;5.178;2023-06-26T06:08:01;24.50;99.90
41838;DHT22;27511;52.042;5.178;2023-06-26T06:10:26;24.40;99.90
41838;DHT22;27511;52.042;5.178;2023-06-26T06:12:52;24.40;99.90
41838;DHT22;27511;52.042;5.178;2023-06-26T06:15:19;24.40;99.90
41838;DHT22;27511;52.042;5.178;2023-06-26T06:17:45;24.30;99.90
41838;DHT22;27511;52.042;5.178;2023-06-26T06:20:11;24.30;99.90
41838;DHT22;27511;52.042;5.178;2023-06-26T06:22:36;24.10;99.90
41838;DHT22;27511;52.042;5.178;2023-06-26T06:25:02;24.10;99.90
41838;DHT22;27511;52.042;5.178;2023-06-26T06:27:28;24.10;99.90
41838;DHT22;27511;52.042;5.178;2023-06-26T06:29:53;24.00;99.90
41838;DHT22;27511;52.042;5.178;2023-06-26T06:32:19;24.00;99.90
41838;DHT22;27511;52.042;5.178;2023-06-26T06:34:44;23.90;99.90
41838;DHT22;27511;52.042;5.178;2023-06-26T06:37:10;23.90;99.90
41838;DHT22;27511;52.042;5.178;2023-06-26T06:39:35;23.80;99.90
41838;DHT22;27511;52.042;5.178;2023-06-26T06:42:01;23.90;99.90
41838;DHT22;27511;52.042;5.178;2023-06-26T06:44:26;24.00;99.90
41838;DHT22;27511;52.042;5.178;2023-06-26T06:46:52;24.10;99.90
41838;DHT22;27511;52.042;5.178;2023-06-26T06:49:18;24.00;99.90
41838;DHT22;27511;52.042;5.178;2023-06-26T06:51:43;23.90;99.90
41838;DHT22;27511;52.042;5.178;2023-06-26T06:54:09;24.00;99.90
41838;DHT22;27511;52.042;5.178;2023-06-26T06:56:34;23.90;99.90
41838;DHT22;27511;52.042;5.178;2023-06-26T06:59:00;23.90;99.90
41838;DHT22;27511;52.042;5.178;2023-06-26T07:01:25;23.90;99.90
41838;DHT22;27511;52.042;5.178;2023-06-26T07:03:51;23.80;99.90
41838;DHT22;27511;52.042;5.178;2023-06-26T07:06:16;23.80;99.90
41838;DHT22;27511;52.042;5.178;2023-06-26T07:08:41;23.90;99.90
41838;DHT22;27511;52.042;5.178;2023-06-26T07:11:07;24.00;99.90
41838;DHT22;27511;52.042;5.178;2023-06-26T07:13:33;24.00;99.90
41838;DHT22;27511;52.042;5.178;2023-06-26T07:15:58;24.00;99.90
41838;DHT22;27511;52.042;5.178;2023-06-26T07:18:23;23.90;99.90
41838;DHT22;27511;52.042;5.178;2023-06-26T07:20:49;23.70;99.90
41838;DHT22;27511;52.042;5.178;2023-06-26T07:23:14;23.60;99.90
41838;DHT22;27511;52.042;5.178;2023-06-26T07:25:40;23.60;99.90
41838;DHT22;27511;52.042;5.178;2023-06-26T07:28:12;23.80;99.90
41838;DHT22;27511;52.042;5.178;2023-06-26T07:30:37;23.80;99.90
41838;DHT22;27511;52.042;5.178;2023-06-26T07:33:03;23.90;99.90
41838;DHT22;27511;52.042;5.178;2023-06-26T07:35:28;23.90;99.90
41838;DHT22;27511;52.042;5.178;2023-06-26T07:37:54;23.90;99.90
41838;DHT22;27511;52.042;5.178;2023-06-26T07:40:19;24.00;99.90
41838;DHT22;27511;52.042;5.178;2023-06-26T07:42:45;24.00;99.90
41838;DHT22;27511;52.042;5.178;2023-06-26T07:45:11;24.00;99.90
41838;DHT22;27511;52.042;5.178;2023-06-26T07:47:37;24.00;99.90
41838;DHT22;27511;52.042;5.178;2023-06-26T07:50:03;24.00;99.90
41838;DHT22;27511;52.042;5.178;2023-06-26T07:52:29;24.00;99.90
41838;DHT22;27511;52.042;5.178;2023-06-26T07:54:55;24.10;99.90
41838;DHT22;27511;52.042;5.178;2023-06-26T07:57:21;24.10;99.90
41838;DHT22;27511;52.042;5.178;2023-06-26T07:59:46;24.20;99.90
41838;DHT22;27511;52.042;5.178;2023-06-26T08:02:12;24.20;99.90
41838;DHT22;27511;52.042;5.178;2023-06-26T08:04:37;24.20;99.90
41838;DHT22;27511;52.042;5.178;2023-06-26T08:07:03;24.10;99.90
41838;DHT22;27511;52.042;5.178;2023-06-26T08:09:31;24.10;99.90
41838;DHT22;27511;52.042;5.178;2023-06-26T08:11:57;24.30;99.90
41838;DHT22;27511;52.042;5.178;2023-06-26T08:14:23;24.20;99.90
41838;DHT22;27511;52.042;5.178;2023-06-26T08:16:49;24.30;99.90
41838;DHT22;27511;52.042;5.178;2023-06-26T08:19:15;24.20;99.90
41838;DHT22;27511;52.042;5.178;2023-06-26T08:21:44;24.20;99.90
41838;DHT22;27511;52.042;5.178;2023-06-26T08:24:10;24.20;99.90
41838;DHT22;27511;52.042;5.178;2023-06-26T08:26:36;24.20;99.90
41838;DHT22;27511;52.042;5.178;2023-06-26T08:29:01;24.10;99.90
41838;DHT22;27511;52.042;5.178;2023-06-26T08:31:33;24.10;99.90
41838;DHT22;27511;52.042;5.178;2023-06-26T08:34:00;24.00;99.90
41838;DHT22;27511;52.042;5.178;2023-06-26T08:36:25;24.10;99.90
41838;DHT22;27511;52.042;5.178;2023-06-26T08:38:50;24.00;99.90
41838;DHT22;27511;52.042;5.178;2023-06-26T08:41:16;24.00;99.90
41838;DHT22;27511;52.042;5.178;2023-06-26T08:43:41;24.00;99.90
41838;DHT22;27511;52.042;5.178;2023-06-26T08:46:07;23.90;99.90
41838;DHT22;27511;52.042;5.178;2023-06-26T08:48:32;23.80;99.90
41838;DHT22;27511;52.042;5.178;2023-06-26T08:51:05;23.80;99.90
41838;DHT22;27511;52.042;5.178;2023-06-26T08:56:18;23.60;99.90
41838;DHT22;27511;52.042;5.178;2023-06-26T08:58:46;23.80;99.90
41838;DHT22;27511;52.042;5.178;2023-06-26T09:01:12;23.80;99.90
41838;DHT22;27511;52.042;5.178;2023-06-26T09:03:38;23.90;99.90
41838;DHT22;27511;52.042;5.178;2023-06-26T09:06:03;24.10;99.90
41838;DHT22;27511;52.042;5.178;2023-06-26T09:08:29;24.10;99.90
41838;DHT22;27511;52.042;5.178;2023-06-26T09:10:55;24.30;99.90
41838;DHT22;27511;52.042;5.178;2023-06-26T09:13:20;24.30;99.90
41838;DHT22;27511;52.042;5.178;2023-06-26T09:15:46;24.30;99.90
41838;DHT22;27511;52.042;5.178;2023-06-26T09:18:13;24.30;99.90
41838;DHT22;27511;52.042;5.178;2023-06-26T09:20:41;24.30;99.90
41838;DHT22;27511;52.042;5.178;2023-06-26T09:23:07;24.30;99.90
41838;DHT22;27511;52.042;5.178;2023-06-26T09:25:33;24.20;99.90
41838;DHT22;27511;52.042;5.178;2023-06-26T09:27:59;24.00;99.90
41838;DHT22;27511;52.042;5.178;2023-06-26T09:30:24;23.90;99.90
41838;DHT22;27511;52.042;5.178;2023-06-26T09:32:50;23.90;99.90
41838;DHT22;27511;52.042;5.178;2023-06-26T09:35:16;24.00;99.90
41838;DHT22;27511;52.042;5.178;2023-06-26T09:37:42;23.90;99.90
41838;DHT22;27511;52.042;5.178;2023-06-26T09:40:08;23.90;99.90
41838;DHT22;27511;52.042;5.178;2023-06-26T09:42:34;23.90;99.90
41838;DHT22;27511;52.042;5.178;2023-06-26T09:45:00;24.00;99.90
41838;DHT22;27511;52.042;5.178;2023-06-26T09:47:29;23.90;99.90
41838;DHT22;27511;52.042;5.178;2023-06-26T09:49:55;23.90;99.90
41838;DHT22;27511;52.042;5.178;2023-06-26T09:52:20;24.00;99.90
41838;DHT22;27511;52.042;5.178;2023-06-26T09:54:46;24.10;99.90
41838;DHT22;27511;52.042;5.178;2023-06-26T09:57:12;24.00;99.90
41838;DHT22;27511;52.042;5.178;2023-06-26T09:59:38;24.10;99.90
41838;DHT22;27511;52.042;5.178;2023-06-26T10:02:04;24.00;99.90
41838;DHT22;27511;52.042;5.178;2023-06-26T10:04:30;24.00;99.90
41838;DHT22;27511;52.042;5.178;2023-06-26T10:06:56;24.00;99.90
41838;DHT22;27511;52.042;5.178;2023-06-26T10:09:22;23.90;99.90
41838;DHT22;27511;52.042;5.178;2023-06-26T10:14:20;24.10;99.90
41838;DHT22;27511;52.042;5.178;2023-06-26T10:16:47;24.10;99.90
41838;DHT22;27511;52.042;5.178;2023-06-26T10:19:13;24.30;99.90
41838;DHT22;27511;52.042;5.178;2023-06-26T10:21:39;24.30;99.90
41838;DHT22;27511;52.042;5.178;2023-06-26T10:24:06;24.20;99.90
41838;DHT22;27511;52.042;5.178;2023-06-26T10:26:32;24.20;99.90
41838;DHT22;27511;52.042;5.178;2023-06-26T10:29:00;24.40;99.90
41838;DHT22;27511;52.042;5.178;2023-06-26T10:31:28;24.40;99.90
41838;DHT22;27511;52.042;5.178;2023-06-26T10:33:54;24.60;99.90
41838;DHT22;27511;52.042;5.178;2023-06-26T10:36:20;24.40;99.90
41838;DHT22;27511;52.042;5.178;2023-06-26T10:38:52;24.30;99.90
41838;DHT22;27511;52.042;5.178;2023-06-26T10:41:19;24.20;99.90
41838;DHT22;27511;52.042;5.178;2023-06-26T10:43:45;24.20;99.90
41838;DHT22;27511;52.042;5.178;2023-06-26T10:46:14;24.20;99.90
41838;DHT22;27511;52.042;5.178;2023-06-26T10:48:56;24.30;99.90
41838;DHT22;27511;52.042;5.178;2023-06-26T10:51:22;24.20;99.90
41838;DHT22;27511;52.042;5.178;2023-06-26T10:53:56;24.30;99.90
41838;DHT22;27511;52.042;5.178;2023-06-26T10:56:41;24.30;99.90
41838;DHT22;27511;52.042;5.178;2023-06-26T10:59:11;24.40;99.90
41838;DHT22;27511;52.042;5.178;2023-06-26T11:01:40;24.40;99.90
41838;DHT22;27511;52.042;5.178;2023-06-26T11:04:06;24.50;99.90
41838;DHT22;27511;52.042;5.178;2023-06-26T11:06:32;24.70;99.90
41838;DHT22;27511;52.042;5.178;2023-06-26T11:14:13;25.10;99.90
41838;DHT22;27511;52.042;5.178;2023-06-26T11:16:39;25.00;99.90
41838;DHT22;27511;52.042;5.178;2023-06-26T11:19:07;24.80;99.90
41838;DHT22;27511;52.042;5.178;2023-06-26T11:21:33;24.70;99.90
41838;DHT22;27511;52.042;5.178;2023-06-26T11:23:59;24.70;99.90
41838;DHT22;27511;52.042;5.178;2023-06-26T11:26:27;24.60;99.90
41838;DHT22;27511;52.042;5.178;2023-06-26T11:28:56;24.60;99.90
41838;DHT22;27511;52.042;5.178;2023-06-26T11:31:28;24.50;99.90
41838;DHT22;27511;52.042;5.178;2023-06-26T11:33:56;24.50;99.90
41838;DHT22;27511;52.042;5.178;2023-06-26T11:36:25;24.50;99.90
41838;DHT22;27511;52.042;5.178;2023-06-26T11:38:54;24.40;99.90
41838;DHT22;27511;52.042;5.178;2023-06-26T11:41:20;24.50;99.90
41838;DHT22;27511;52.042;5.178;2023-06-26T11:43:46;24.50;99.90
41838;DHT22;27511;52.042;5.178;2023-06-26T11:46:11;24.40;99.90
41838;DHT22;27511;52.042;5.178;2023-06-26T11:48:37;24.30;99.90
41838;DHT22;27511;52.042;5.178;2023-06-26T11:51:04;24.30;99.90
41838;DHT22;27511;52.042;5.178;2023-06-26T11:53:29;24.30;99.90
41838;DHT22;27511;52.042;5.178;2023-06-26T11:55:55;24.20;99.90
41838;DHT22;27511;52.042;5.178;2023-06-26T11:58:22;24.00;99.90
41838;DHT22;27511;52.042;5.178;2023-06-26T12:00:48;24.00;99.90
41838;DHT22;27511;52.042;5.178;2023-06-26T12:03:13;24.20;99.90
41838;DHT22;27511;52.042;5.178;2023-06-26T12:05:39;24.20;99.90
41838;DHT22;27511;52.042;5.178;2023-06-26T12:08:05;24.30;99.90
41838;DHT22;27511;52.042;5.178;2023-06-26T12:10:32;24.40;99.90
41838;DHT22;27511;52.042;5.178;2023-06-26T12:12:58;24.40;99.90
41838;DHT22;27511;52.042;5.178;2023-06-26T12:15:25;24.60;99.90
41838;DHT22;27511;52.042;5.178;2023-06-26T12:17:54;24.70;99.90
41838;DHT22;27511;52.042;5.178;2023-06-26T12:20:23;24.60;99.90
41838;DHT22;27511;52.042;5.178;2023-06-26T12:22:50;24.80;99.90
41838;DHT22;27511;52.042;5.178;2023-06-26T12:25:21;24.90;99.90
41838;DHT22;27511;52.042;5.178;2023-06-26T12:27:47;25.00;99.90
41838;DHT22;27511;52.042;5.178;2023-06-26T12:30:13;25.00;99.90
41838;DHT22;27511;52.042;5.178;2023-06-26T12:32:39;25.20;99.90
41838;DHT22;27511;52.042;5.178;2023-06-26T12:35:05;25.00;99.90
41838;DHT22;27511;52.042;5.178;2023-06-26T12:37:35;25.00;99.90
41838;DHT22;27511;52.042;5.178;2023-06-26T12:40:01;25.10;99.90
41838;DHT22;27511;52.042;5.178;2023-06-26T12:42:32;25.10;99.90
41838;DHT22;27511;52.042;5.178;2023-06-26T12:44:58;25.10;99.90
41838;DHT22;27511;52.042;5.178;2023-06-26T12:47:24;25.10;99.90
41838;DHT22;27511;52.042;5.178;2023-06-26T12:49:50;25.20;99.90
41838;DHT22;27511;52.042;5.178;2023-06-26T12:52:17;25.20;99.90
41838;DHT22;27511;52.042;5.178;2023-06-26T12:54:44;25.30;99.90
41838;DHT22;27511;52.042;5.178;2023-06-26T12:57:09;25.40;99.90
41838;DHT22;27511;52.042;5.178;2023-06-26T12:59:36;25.40;99.90
41838;DHT22;27511;52.042;5.178;2023-06-26T13:02:01;25.40;99.90
41838;DHT22;27511;52.042;5.178;2023-06-26T13:04:28;25.30;99.90
41838;DHT22;27511;52.042;5.178;2023-06-26T13:06:53;25.30;99.90
41838;DHT22;27511;52.042;5.178;2023-06-26T13:09:22;25.20;99.90
41838;DHT22;27511;52.042;5.178;2023-06-26T13:11:48;25.10;99.90
41838;DHT22;27511;52.042;5.178;2023-06-26T13:14:13;25.00;99.90
41838;DHT22;27511;52.042;5.178;2023-06-26T13:16:39;24.90;99.90
41838;DHT22;27511;52.042;5.178;2023-06-26T13:19:05;25.00;99.90
41838;DHT22;27511;52.042;5.178;2023-06-26T13:21:31;24.90;99.90
41838;DHT22;27511;52.042;5.178;2023-06-26T13:23:57;25.10;99.90
41838;DHT22;27511;52.042;5.178;2023-06-26T13:26:23;25.00;99.90
41838;DHT22;27511;52.042;5.178;2023-06-26T13:28:49;25.00;99.90
41838;DHT22;27511;52.042;5.178;2023-06-26T13:31:14;25.20;99.90
41838;DHT22;27511;52.042;5.178;2023-06-26T13:33:40;25.20;99.90
41838;DHT22;27511;52.042;5.178;2023-06-26T13:36:05;25.40;99.90
41838;DHT22;27511;52.042;5.178;2023-06-26T13:38:34;25.40;99.90
41838;DHT22;27511;52.042;5.178;2023-06-26T13:40:59;25.40;99.90
41838;DHT22;27511;52.042;5.178;2023-06-26T13:43:28;25.60;99.90
41838;DHT22;27511;52.042;5.178;2023-06-26T13:45:54;25.80;99.90
41838;DHT22;27511;52.042;5.178;2023-06-26T13:48:19;25.80;99.90
41838;DHT22;27511;52.042;5.178;2023-06-26T13:50:45;25.80;99.90
41838;DHT22;27511;52.042;5.178;2023-06-26T13:53:11;25.80;99.90
41838;DHT22;27511;52.042;5.178;2023-06-26T13:55:37;25.50;99.90
41838;DHT22;27511;52.042;5.178;2023-06-26T13:58:06;25.50;99.90
41838;DHT22;27511;52.042;5.178;2023-06-26T14:00:32;25.50;99.90
41838;DHT22;27511;52.042;5.178;2023-06-26T14:03:02;25.50;99.90
41838;DHT22;27511;52.042;5.178;2023-06-26T14:05:29;25.40;99.90
41838;DHT22;27511;52.042;5.178;2023-06-26T14:07:54;25.50;99.90
41838;DHT22;27511;52.042;5.178;2023-06-26T14:10:20;25.40;99.90
41838;DHT22;27511;52.042;5.178;2023-06-26T14:12:46;25.50;99.90
41838;DHT22;27511;52.042;5.178;2023-06-26T14:15:11;25.60;99.90
41838;DHT22;27511;52.042;5.178;2023-06-26T14:17:37;25.70;99.90
41838;DHT22;27511;52.042;5.178;2023-06-26T14:20:08;25.60;99.90
41838;DHT22;27511;52.042;5.178;2023-06-26T14:22:38;25.70;99.90
41838;DHT22;27511;52.042;5.178;2023-06-26T14:25:04;25.80;99.90
41838;DHT22;27511;52.042;5.178;2023-06-26T14:27:29;26.10;99.90
41838;DHT22;27511;52.042;5.178;2023-06-26T14:29:55;26.10;99.90
41838;DHT22;27511;52.042;5.178;2023-06-26T14:32:20;26.00;99.90
41838;DHT22;27511;52.042;5.178;2023-06-26T14:34:46;26.00;99.90
41838;DHT22;27511;52.042;5.178;2023-06-26T14:37:11;26.00;99.90
41838;DHT22;27511;52.042;5.178;2023-06-26T14:39:37;26.10;99.90
41838;DHT22;27511;52.042;5.178;2023-06-26T14:42:04;26.10;99.90
41838;DHT22;27511;52.042;5.178;2023-06-26T14:44:29;26.20;99.90
41838;DHT22;27511;52.042;5.178;2023-06-26T14:46:55;26.30;99.90
41838;DHT22;27511;52.042;5.178;2023-06-26T14:49:21;26.40;99.90
41838;DHT22;27511;52.042;5.178;2023-06-26T14:51:46;26.50;99.90
41838;DHT22;27511;52.042;5.178;2023-06-26T14:54:11;26.40;99.90
41838;DHT22;27511;52.042;5.178;2023-06-26T14:56:37;26.20;99.90
41838;DHT22;27511;52.042;5.178;2023-06-26T14:59:03;26.10;99.90
41838;DHT22;27511;52.042;5.178;2023-06-26T15:01:28;26.10;99.90
41838;DHT22;27511;52.042;5.178;2023-06-26T15:03:55;26.10;99.90
41838;DHT22;27511;52.042;5.178;2023-06-26T15:06:20;26.30;99.90
41838;DHT22;27511;52.042;5.178;2023-06-26T15:08:46;26.40;99.90
41838;DHT22;27511;52.042;5.178;2023-06-26T15:11:11;26.50;99.90
41838;DHT22;27511;52.042;5.178;2023-06-26T15:13:37;26.30;99.90
41838;DHT22;27511;52.042;5.178;2023-06-26T15:16:03;26.10;99.90
41838;DHT22;27511;52.042;5.178;2023-06-26T15:18:28;26.10;99.90
41838;DHT22;27511;52.042;5.178;2023-06-26T15:20:54;26.30;99.90
41838;DHT22;27511;52.042;5.178;2023-06-26T15:23:19;26.50;99.90
41838;DHT22;27511;52.042;5.178;2023-06-26T15:25:45;26.90;99.90
41838;DHT22;27511;52.042;5.178;2023-06-26T15:28:10;27.10;99.90
41838;DHT22;27511;52.042;5.178;2023-06-26T15:30:36;27.50;99.90
41838;DHT22;27511;52.042;5.178;2023-06-26T15:33:01;28.00;99.90
41838;DHT22;27511;52.042;5.178;2023-06-26T15:35:27;28.30;99.90
41838;DHT22;27511;52.042;5.178;2023-06-26T15:37:53;29.60;99.90
41838;DHT22;27511;52.042;5.178;2023-06-26T15:40:19;30.40;99.90
41838;DHT22;27511;52.042;5.178;2023-06-26T15:42:45;31.40;99.90